Time;durP1;ratioP1;P1;durP2;ratioP2;P2;SDS_P1;SDS_P2;PMS_P1;PMS_P2;Temp;Humidity;BMP_temperature;BMP_pressure;BME280_temperature;BME280_humidity;BME280_pressure;Samples;Min_cycle;Max_cycle;Signal;HPM_P1;HPM_P2
2023/05/01 00:01:58;;;;;;;11.90;4.57;;;7.40;99.90;;;;;;4996879;28;20042;-86
2023/05/01 00:04:25;;;;;;;10.13;4.53;;;8.30;99.90;;;;;;4996260;28;20041;-86
2023/05/01 00:07:11;;;;;;;11.95;4.57;;;7.30;99.90;;;;;;5014170;28;20044;-86
2023/05/01 00:09:40;;;;;;;10.40;4.15;;;8.40;99.90;;;;;;4996332;28;20045;-86
2023/05/01 00:12:20;;;;;;;12.52;4.88;;;7.20;99.90;;;;;;5014611;28;20041;-86
2023/05/01 00:14:46;;;;;;;11.80;4.32;;;7.20;99.90;;;;;;5014544;28;20129;-86
2023/05/01 00:17:12;;;;;;;12.70;5.03;;;8.20;99.90;;;;;;4995211;28;20136;-86
2023/05/01 00:19:37;;;;;;;12.75;4.20;;;7.10;99.90;;;;;;4996587;28;20053;-86
2023/05/01 00:22:03;;;;;;;10.93;4.50;;;7.10;99.90;;;;;;4996529;28;20465;-85
2023/05/01 00:24:49;;;;;;;10.77;4.97;;;7.70;99.90;;;;;;4995807;28;20041;-86
2023/05/01 00:27:15;;;;;;;10.18;4.60;;;7.00;99.90;;;;;;4996656;28;20057;-86
2023/05/01 00:29:41;;;;;;;12.05;4.53;;;6.90;99.90;;;;;;4999690;28;20049;-86
2023/05/01 00:32:06;;;;;;;13.80;4.95;;;6.90;99.90;;;;;;5017596;28;20054;-85
2023/05/01 00:34:32;;;;;;;12.55;4.57;;;6.90;99.90;;;;;;5014377;28;20045;-86
2023/05/01 00:37:00;;;;;;;11.77;4.80;;;6.90;99.90;;;;;;4999884;28;20145;-86
2023/05/01 00:39:26;;;;;;;9.88;4.20;;;6.80;99.90;;;;;;5000730;28;20046;-86
2023/05/01 00:41:52;;;;;;;12.07;4.63;;;7.80;99.90;;;;;;4996650;28;20521;-85
2023/05/01 00:44:17;;;;;;;12.45;4.72;;;6.80;99.90;;;;;;4996327;28;20045;-86
2023/05/01 00:46:43;;;;;;;12.23;5.07;;;6.80;99.90;;;;;;5013482;28;20052;-85
2023/05/01 00:49:21;;;;;;;11.85;4.47;;;6.70;99.90;;;;;;4995759;28;20057;-86
2023/05/01 00:51:51;;;;;;;10.23;4.55;;;6.70;99.90;;;;;;5013284;28;20046;-85
2023/05/01 00:54:17;;;;;;;11.88;4.95;;;6.50;99.90;;;;;;4995465;28;20125;-85
2023/05/01 00:56:43;;;;;;;14.40;4.80;;;6.70;99.90;;;;;;5013592;28;20049;-86
2023/05/01 00:59:09;;;;;;;11.95;4.80;;;6.60;99.90;;;;;;4995044;28;20042;-86
2023/05/01 01:01:37;;;;;;;11.18;4.45;;;6.60;99.90;;;;;;4996105;28;20559;-86
2023/05/01 01:04:03;;;;;;;12.05;5.00;;;6.50;99.90;;;;;;5013232;28;20046;-86
2023/05/01 01:06:38;;;;;;;12.57;5.72;;;6.50;99.90;;;;;;5013120;28;20153;-85
2023/05/01 01:09:21;;;;;;;12.15;4.38;;;6.50;99.90;;;;;;4995398;28;20189;-86
2023/05/01 01:12:23;;;;;;;13.45;4.63;;;6.50;99.90;;;;;;5013861;28;20046;-86
2023/05/01 01:15:06;;;;;;;12.77;4.93;;;6.40;99.90;;;;;;4996252;28;20078;-85
2023/05/01 01:17:41;;;;;;;11.75;4.68;;;6.40;99.90;;;;;;4995901;28;20049;-85
2023/05/01 01:20:30;;;;;;;13.57;4.70;;;6.40;99.90;;;;;;4997122;28;20058;-85
2023/05/01 01:23:08;;;;;;;11.77;4.77;;;6.30;99.90;;;;;;5015739;28;20041;-86
2023/05/01 01:26:12;;;;;;;11.70;4.90;;;6.30;99.90;;;;;;4976276;28;20039;-85
2023/05/01 01:29:12;;;;;;;13.48;5.32;;;6.20;99.90;;;;;;4927569;28;20102;-85
2023/05/01 01:32:08;;;;;;;12.73;5.23;;;6.20;99.90;;;;;;4976209;28;20046;-85
2023/05/01 01:34:42;;;;;;;11.93;4.32;;;6.20;99.90;;;;;;4987946;28;20071;-85
2023/05/01 01:37:19;;;;;;;11.17;4.90;;;6.10;99.90;;;;;;5012487;28;20069;-85
2023/05/01 01:40:01;;;;;;;10.80;5.00;;;6.70;99.90;;;;;;5013208;28;20398;-85
2023/05/01 01:42:52;;;;;;;12.77;4.87;;;6.10;99.90;;;;;;5012777;28;20073;-86
2023/05/01 01:45:22;;;;;;;11.77;5.23;;;6.00;99.90;;;;;;4994717;28;20050;-85
2023/05/01 01:47:50;;;;;;;14.97;5.20;;;6.00;99.90;;;;;;4995564;28;20046;-85
2023/05/01 01:50:30;;;;;;;13.70;5.10;;;6.00;99.90;;;;;;4994104;28;20136;-85
2023/05/01 01:52:59;;;;;;;13.03;4.53;;;6.00;99.90;;;;;;4995057;28;20073;-85
2023/05/01 01:55:28;;;;;;;13.13;5.07;;;6.00;99.90;;;;;;4994641;28;20054;-85
2023/05/01 01:57:54;;;;;;;13.23;5.10;;;6.00;99.90;;;;;;4996299;28;20049;-85
2023/05/01 02:00:21;;;;;;;11.93;4.50;;;6.00;99.90;;;;;;5003513;28;20046;-85
2023/05/01 02:02:48;;;;;;;14.37;5.73;;;5.90;99.90;;;;;;4995247;28;20108;-86
2023/05/01 02:05:18;;;;;;;10.87;4.60;;;5.90;99.90;;;;;;4998267;28;20049;-86
2023/05/01 02:07:48;;;;;;;11.37;4.67;;;5.80;99.90;;;;;;5006907;28;20128;-86
2023/05/01 02:10:15;;;;;;;10.87;4.90;;;5.80;99.90;;;;;;4999144;28;20045;-86
2023/05/01 02:12:50;;;;;;;13.70;4.83;;;5.80;99.90;;;;;;4999838;28;20037;-86
2023/05/01 02:15:18;;;;;;;13.53;4.90;;;6.80;99.90;;;;;;4999045;28;20048;-85
2023/05/01 02:17:44;;;;;;;13.77;5.20;;;6.60;99.90;;;;;;4998259;28;20074;-85
2023/05/01 02:20:11;;;;;;;13.13;4.90;;;5.80;99.90;;;;;;4998333;28;20110;-85
2023/05/01 02:22:39;;;;;;;12.60;5.20;;;6.80;99.90;;;;;;4999653;28;20092;-86
2023/05/01 02:25:13;;;;;;;13.43;5.00;;;5.80;99.90;;;;;;4998395;28;20046;-85
2023/05/01 02:27:57;;;;;;;;;;;5.70;99.90;;;;;;4999466;28;20049;-85
2023/05/01 02:30:23;;;;;;;10.93;4.82;;;5.70;99.90;;;;;;5020385;28;19932;-86
2023/05/01 02:32:49;;;;;;;15.50;5.60;;;5.70;99.90;;;;;;5016972;28;20030;-85
2023/05/01 02:35:15;;;;;;;13.07;5.70;;;5.60;99.90;;;;;;5002159;28;20050;-86
2023/05/01 02:37:42;;;;;;;13.97;5.10;;;6.00;99.90;;;;;;4997676;28;20380;-86
2023/05/01 02:40:10;;;;;;;14.00;6.00;;;5.60;99.90;;;;;;4996504;28;20054;-86
2023/05/01 02:43:02;;;;;;;15.03;5.43;;;5.80;99.90;;;;;;4995388;28;20148;-85
2023/05/01 02:45:29;;;;;;;14.63;5.43;;;5.50;99.90;;;;;;5008628;28;20137;-86
2023/05/01 02:48:17;;;;;;;13.67;5.70;;;6.40;99.90;;;;;;4996591;28;20050;-86
2023/05/01 02:50:45;;;;;;;13.30;5.30;;;5.50;99.90;;;;;;4996266;28;20089;-85
2023/05/01 02:53:11;;;;;;;19.30;5.90;;;6.70;99.90;;;;;;5001719;28;20065;-86
2023/05/01 02:55:38;;;;;;;12.57;5.33;;;5.40;99.90;;;;;;4996818;28;20053;-86
2023/05/01 02:58:03;;;;;;;12.90;5.27;;;5.40;99.90;;;;;;4994680;28;20042;-86
2023/05/01 03:00:29;;;;;;;12.23;5.50;;;5.40;99.90;;;;;;4995678;28;20041;-86
2023/05/01 03:02:55;;;;;;;14.07;5.53;;;6.30;99.90;;;;;;4995922;28;20054;-86
2023/05/01 03:05:21;;;;;;;13.63;6.00;;;5.30;99.90;;;;;;4994315;28;20049;-86
2023/05/01 03:07:47;;;;;;;12.83;4.83;;;5.30;99.90;;;;;;4996111;28;20053;-86
2023/05/01 03:10:13;;;;;;;13.33;5.30;;;6.00;99.90;;;;;;4994215;28;20050;-86
2023/05/01 03:12:41;;;;;;;13.83;5.63;;;5.20;99.90;;;;;;4995555;28;20467;-85
2023/05/01 03:15:07;;;;;;;13.07;5.60;;;5.30;99.90;;;;;;4995239;28;20046;-85
2023/05/01 03:17:33;;;;;;;14.30;6.00;;;5.30;99.90;;;;;;4978653;28;20042;-86
2023/05/01 03:19:58;;;;;;;21.47;6.10;;;5.20;99.90;;;;;;4993397;28;20042;-86
2023/05/01 03:22:24;;;;;;;13.77;5.83;;;5.20;99.90;;;;;;4996125;28;20426;-85
2023/05/01 03:24:50;;;;;;;12.07;5.47;;;6.40;99.90;;;;;;4995710;28;20042;-86
2023/05/01 03:27:15;;;;;;;14.43;6.00;;;5.20;99.90;;;;;;4995273;28;20038;-86
2023/05/01 03:29:41;;;;;;;15.13;6.03;;;5.20;99.90;;;;;;5003646;28;20391;-85
2023/05/01 03:32:06;;;;;;;15.97;6.30;;;5.10;99.90;;;;;;4994819;28;20082;-85
2023/05/01 03:34:33;;;;;;;15.00;6.03;;;5.10;99.90;;;;;;4994563;28;20066;-85
2023/05/01 03:36:58;;;;;;;14.90;6.20;;;5.10;99.90;;;;;;5007135;28;20486;-86
2023/05/01 03:39:24;;;;;;;14.47;5.80;;;5.10;99.90;;;;;;4997452;28;20052;-85
2023/05/01 03:41:49;;;;;;;13.30;6.07;;;5.10;99.90;;;;;;4996691;28;20053;-86
2023/05/01 03:44:15;;;;;;;13.90;5.80;;;5.10;99.90;;;;;;4997287;28;20100;-86
2023/05/01 03:46:41;;;;;;;14.83;6.60;;;6.20;99.90;;;;;;5015101;28;20042;-85
2023/05/01 03:49:07;;;;;;;15.03;7.00;;;5.00;99.90;;;;;;4996009;28;20228;-86
2023/05/01 03:51:32;;;;;;;14.77;6.20;;;5.00;99.90;;;;;;4997215;28;20508;-86
2023/05/01 03:53:58;;;;;;;13.43;6.03;;;5.10;99.90;;;;;;4996679;28;20117;-85
2023/05/01 03:56:35;;;;;;;15.07;6.37;;;5.00;99.90;;;;;;5010506;28;20085;-85
2023/05/01 03:59:01;;;;;;;14.77;6.77;;;4.90;99.90;;;;;;4996545;28;20050;-85
2023/05/01 04:01:27;;;;;;;15.50;6.40;;;5.00;99.90;;;;;;4986458;28;20462;-85
2023/05/01 04:03:52;;;;;;;15.20;6.37;;;5.90;99.90;;;;;;4993747;28;20046;-85
2023/05/01 04:06:21;;;;;;;15.33;6.47;;;5.10;99.90;;;;;;4996479;28;20121;-85
2023/05/01 04:08:47;;;;;;;13.90;6.33;;;5.10;99.90;;;;;;4996011;28;20077;-85
2023/05/01 04:11:12;;;;;;;14.40;6.67;;;5.10;99.90;;;;;;4996589;28;20077;-86
2023/05/01 04:13:38;;;;;;;15.63;7.00;;;6.30;99.90;;;;;;4997076;28;20046;-85
2023/05/01 04:16:05;;;;;;;14.67;6.47;;;5.20;99.90;;;;;;5013708;28;20112;-86
2023/05/01 04:18:30;;;;;;;14.47;6.50;;;5.20;99.90;;;;;;4997073;28;20088;-86
2023/05/01 04:20:56;;;;;;;14.60;6.93;;;5.20;99.90;;;;;;4996279;28;20081;-85
2023/05/01 04:23:22;;;;;;;13.60;6.10;;;6.40;99.90;;;;;;5014631;28;20077;-86
2023/05/01 04:26:02;;;;;;;14.63;6.57;;;5.30;99.90;;;;;;5015122;28;20053;-85
2023/05/01 04:28:29;;;;;;;15.17;6.57;;;7.00;99.90;;;;;;4996110;28;20125;-86
2023/05/01 04:30:56;;;;;;;16.50;6.70;;;5.40;99.90;;;;;;4995585;28;20493;-86
2023/05/01 04:33:23;;;;;;;16.60;6.07;;;5.50;99.90;;;;;;4996898;28;20077;-86
2023/05/01 04:35:52;;;;;;;14.67;6.47;;;5.50;99.90;;;;;;4992215;28;20080;-86
2023/05/01 04:38:18;;;;;;;14.60;6.73;;;6.20;99.90;;;;;;4991682;28;20066;-85
2023/05/01 04:40:44;;;;;;;14.53;6.37;;;5.70;99.90;;;;;;4992685;28;20235;-85
2023/05/01 04:43:10;;;;;;;16.80;6.70;;;5.80;99.90;;;;;;5025351;23;20069;-86
2023/05/01 04:45:37;;;;;;;17.23;6.57;;;5.60;99.90;;;;;;4959748;28;20042;-85
2023/05/01 04:48:06;;;;;;;18.27;6.90;;;5.90;99.90;;;;;;4976335;28;20042;-85
2023/05/01 04:50:32;;;;;;;14.43;6.47;;;6.90;99.90;;;;;;4976392;28;20046;-86
2023/05/01 04:53:03;;;;;;;16.10;6.83;;;6.00;99.90;;;;;;4992635;28;20125;-86
2023/05/01 04:55:29;;;;;;;15.17;6.60;;;5.90;99.90;;;;;;4994130;28;20487;-85
2023/05/01 04:57:56;;;;;;;16.43;6.13;;;6.10;99.90;;;;;;4979861;28;20039;-86
2023/05/01 05:00:22;;;;;;;14.70;6.25;;;6.20;99.90;;;;;;4980568;28;20096;-86
2023/05/01 05:03:03;;;;;;;14.70;7.03;;;6.20;99.90;;;;;;4976886;28;20035;-85
2023/05/01 05:05:29;;;;;;;14.07;6.45;;;6.40;99.90;;;;;;4981927;28;20035;-85
2023/05/01 05:07:54;;;;;;;18.00;8.07;;;6.30;99.90;;;;;;4977003;28;20406;-86
2023/05/01 05:10:20;;;;;;;15.27;6.35;;;6.30;99.90;;;;;;4993766;28;20039;-86
2023/05/01 05:12:48;;;;;;;14.67;6.43;;;6.40;99.90;;;;;;4975320;28;20486;-86
2023/05/01 05:15:15;;;;;;;16.83;6.63;;;7.70;99.90;;;;;;4993438;28;20137;-86
2023/05/01 05:17:41;;;;;;;15.93;6.32;;;6.50;99.90;;;;;;4976392;28;20379;-83
2023/05/01 05:20:07;;;;;;;14.68;6.75;;;6.60;99.90;;;;;;4992387;28;20046;-82
2023/05/01 05:22:36;;;;;;;17.27;7.07;;;6.80;99.90;;;;;;4993320;28;20074;-84
2023/05/01 05:25:03;;;;;;;13.73;6.80;;;8.00;99.90;;;;;;4975720;28;20475;-83
2023/05/01 05:27:31;;;;;;;15.85;6.55;;;6.90;99.90;;;;;;4992901;28;20046;-82
2023/05/01 05:29:56;;;;;;;14.05;6.85;;;7.00;99.90;;;;;;4993017;28;20503;-82
2023/05/01 05:32:22;;;;;;;15.85;6.75;;;7.10;99.90;;;;;;4993479;28;20084;-82
2023/05/01 05:34:48;;;;;;;15.82;6.65;;;7.20;99.90;;;;;;4994097;28;20055;-83
2023/05/01 05:37:14;;;;;;;13.65;6.72;;;7.30;99.90;;;;;;4976457;28;20057;-82
2023/05/01 05:39:40;;;;;;;14.40;6.60;;;7.40;99.90;;;;;;4975544;28;20055;-82
2023/05/01 05:42:05;;;;;;;15.82;7.43;;;8.30;99.90;;;;;;4974727;28;20518;-82
2023/05/01 05:44:31;;;;;;;13.98;6.75;;;7.60;99.90;;;;;;4993220;28;20050;-82
2023/05/01 05:46:57;;;;;;;14.05;6.40;;;7.60;99.90;;;;;;4975248;28;20380;-81
2023/05/01 05:49:23;;;;;;;15.75;7.15;;;7.70;99.90;;;;;;4992440;28;20483;-81
2023/05/01 05:51:48;;;;;;;13.23;6.60;;;7.80;99.90;;;;;;4975467;28;20039;-82
2023/05/01 05:54:15;;;;;;;13.65;6.57;;;8.00;99.90;;;;;;4974533;28;20129;-83
2023/05/01 05:56:43;;;;;;;16.73;6.75;;;8.20;99.90;;;;;;4975383;28;20133;-79
2023/05/01 05:59:09;;;;;;;15.02;6.35;;;8.20;99.90;;;;;;4975580;28;20054;-83
2023/05/01 06:01:36;;;;;;;14.82;6.75;;;8.30;99.90;;;;;;4992118;28;20046;-83
2023/05/01 06:04:05;;;;;;;16.83;6.25;;;8.40;99.90;;;;;;4992800;28;20089;-83
2023/05/01 06:06:34;;;;;;;13.85;6.38;;;8.60;99.90;;;;;;4993083;28;20054;-83
2023/05/01 06:09:00;;;;;;;14.27;6.40;;;8.60;99.90;;;;;;4974183;28;20046;-83
2023/05/01 06:11:26;;;;;;;12.88;6.13;;;8.80;99.90;;;;;;4975342;28;20167;-82
2023/05/01 06:13:52;;;;;;;14.45;6.82;;;9.90;99.90;;;;;;4992262;28;20489;-83
2023/05/01 06:16:17;;;;;;;14.40;6.30;;;9.00;99.90;;;;;;4974510;28;20544;-84
2023/05/01 06:18:43;;;;;;;13.65;6.28;;;9.00;99.90;;;;;;4992372;28;20487;-86
2023/05/01 06:21:09;;;;;;;16.58;6.35;;;9.10;99.90;;;;;;4974703;28;20129;-83
2023/05/01 06:23:35;;;;;;;14.55;6.07;;;9.10;99.90;;;;;;4992041;28;20108;-83
2023/05/01 06:26:03;;;;;;;15.32;6.28;;;9.20;99.90;;;;;;4992571;28;20557;-83
2023/05/01 06:28:29;;;;;;;12.93;6.40;;;9.30;99.90;;;;;;4999465;28;20042;-83
2023/05/01 06:30:55;;;;;;;13.95;6.38;;;9.30;99.90;;;;;;4974481;28;20050;-83
2023/05/01 06:33:20;;;;;;;13.38;6.00;;;9.40;99.90;;;;;;4976369;28;20038;-83
2023/05/01 06:35:47;;;;;;;14.38;6.40;;;9.50;99.90;;;;;;4999323;28;20046;-82
2023/05/01 06:38:12;;;;;;;12.32;5.60;;;9.60;99.90;;;;;;4974483;28;20410;-83
2023/05/01 06:40:41;;;;;;;13.43;6.00;;;10.80;99.90;;;;;;4992376;28;20043;-83
2023/05/01 06:43:07;;;;;;;13.60;6.07;;;10.20;99.90;;;;;;4974298;28;20053;-83
2023/05/01 06:45:33;;;;;;;14.82;6.32;;;9.90;99.90;;;;;;4991602;28;20430;-84
2023/05/01 06:47:58;;;;;;;12.90;5.88;;;11.00;99.90;;;;;;4974460;28;20038;-84
2023/05/01 06:50:24;;;;;;;14.82;6.00;;;10.10;99.90;;;;;;4991222;28;20395;-84
2023/05/01 06:52:49;;;;;;;13.00;6.38;;;10.30;99.90;;;;;;4978192;28;20090;-84
2023/05/01 06:58:07;;;;;;;12.27;6.00;;;10.50;99.90;;;;;;5094171;23;20058;-84
2023/05/01 07:00:36;;;;;;;13.30;5.95;;;11.70;99.90;;;;;;4958880;28;20182;-84
2023/05/01 07:03:14;;;;;;;13.27;6.13;;;11.90;99.90;;;;;;4956823;28;20054;-84
2023/05/01 07:05:39;;;;;;;12.25;5.85;;;12.10;99.90;;;;;;4975677;28;20097;-85
2023/05/01 07:08:06;;;;;;;12.93;5.55;;;10.60;99.90;;;;;;4957704;28;20117;-84
2023/05/01 07:10:31;;;;;;;14.73;5.90;;;11.00;99.90;;;;;;4976252;28;20070;-84
2023/05/01 07:13:09;;;;;;;14.13;5.70;;;11.40;99.90;;;;;;4958348;28;20491;-85
2023/05/01 07:15:35;;;;;;;13.02;5.57;;;12.30;99.90;;;;;;4976480;28;20059;-84
2023/05/01 07:18:01;;;;;;;13.73;5.57;;;12.30;99.90;;;;;;4958692;28;20085;-84
2023/05/01 07:20:39;;;;;;;13.10;6.00;;;12.50;99.90;;;;;;4957851;28;20134;-84
2023/05/01 07:23:05;;;;;;;12.55;5.88;;;12.00;99.90;;;;;;4975769;28;20125;-84
2023/05/01 07:25:31;;;;;;;14.20;5.70;;;11.30;99.90;;;;;;4958481;28;20149;-85
2023/05/01 07:28:09;;;;;;;15.18;5.75;;;12.70;99.90;;;;;;4957755;28;20066;-87
2023/05/01 07:30:35;;;;;;;14.80;5.70;;;11.80;99.90;;;;;;4958711;28;20051;-84
2023/05/01 07:33:19;;;;;;;12.07;5.80;;;11.60;99.90;;;;;;4959489;28;20050;-83
2023/05/01 07:35:45;;;;;;;;;;;10.70;99.90;;;;;;4958083;28;20057;-83
2023/05/01 07:38:11;;;;;;;12.60;5.80;;;13.20;99.90;;;;;;4975133;28;19926;-84
2023/05/01 07:40:37;;;;;;;12.50;6.22;;;13.30;99.90;;;;;;4974424;28;20126;-84
2023/05/01 07:43:03;;;;;;;12.25;5.80;;;13.20;99.90;;;;;;4956366;28;20093;-84
2023/05/01 07:45:56;;;;;;;16.58;6.30;;;13.10;99.90;;;;;;4975234;28;20038;-84
2023/05/01 07:48:21;;;;;;;11.68;5.85;;;12.30;99.90;;;;;;4974945;28;20059;-83
2023/05/01 07:51:05;;;;;;;12.68;5.88;;;13.80;99.90;;;;;;4975014;28;20096;-83
2023/05/01 07:53:31;;;;;;;13.65;6.32;;;14.00;99.90;;;;;;4958422;28;20085;-83
2023/05/01 07:56:18;;;;;;;13.10;6.05;;;12.80;99.90;;;;;;4956477;28;20507;-82
2023/05/01 07:58:44;;;;;;;12.48;5.53;;;14.30;99.90;;;;;;4961067;28;20491;-83
2023/05/01 08:01:28;;;;;;;12.70;6.53;;;13.80;99.90;;;;;;4956522;28;20117;-84
2023/05/01 08:03:54;;;;;;;13.35;6.05;;;14.00;99.90;;;;;;4976852;28;20502;-84
2023/05/01 08:06:20;;;;;;;12.60;5.97;;;13.40;99.90;;;;;;4960815;28;20038;-83
2023/05/01 08:08:45;;;;;;;11.35;5.82;;;14.60;99.90;;;;;;4957782;28;20046;-85
2023/05/01 08:11:11;;;;;;;12.10;6.05;;;13.50;99.90;;;;;;4957595;28;20577;-83
2023/05/01 08:13:52;;;;;;;12.63;6.13;;;14.00;99.90;;;;;;4950306;28;20050;-83
2023/05/01 08:16:18;;;;;;;13.10;6.05;;;14.50;99.90;;;;;;4939367;28;20039;-84
2023/05/01 08:18:45;;;;;;;13.55;6.78;;;14.70;99.90;;;;;;4955523;28;20049;-83
2023/05/01 08:21:11;;;;;;;19.77;15.07;;;13.40;99.90;;;;;;4959019;28;20038;-84
2023/05/01 08:23:36;;;;;;;27.20;20.65;;;13.40;99.90;;;;;;4946123;28;20047;-84
2023/05/01 08:26:02;;;;;;;14.27;6.68;;;13.50;99.90;;;;;;4952705;23;20062;-85
2023/05/01 08:28:28;;;;;;;13.73;6.15;;;13.50;99.90;;;;;;4958392;28;20046;-84
2023/05/01 08:31:03;;;;;;;14.10;6.07;;;13.60;99.90;;;;;;4972447;28;20042;-84
2023/05/01 08:33:29;;;;;;;13.88;6.38;;;13.60;99.90;;;;;;4973018;28;20125;-84
2023/05/01 08:36:16;;;;;;;13.05;5.88;;;15.00;99.90;;;;;;4963546;28;20169;-84
2023/05/01 08:38:41;;;;;;;13.27;5.50;;;13.90;99.90;;;;;;4955135;29;20095;-83
2023/05/01 08:41:08;;;;;;;17.10;13.60;;;14.90;99.90;;;;;;4957847;28;20047;-82
2023/05/01 08:43:52;;;;;;;15.50;9.15;;;14.10;99.90;;;;;;4973869;28;20094;-83
2023/05/01 08:46:37;;;;;;;12.75;6.45;;;14.90;99.90;;;;;;4973526;28;20093;-83
2023/05/01 08:49:05;;;;;;;14.70;9.35;;;14.40;99.90;;;;;;4973019;28;20137;-83
2023/05/01 08:51:32;;;;;;;13.85;6.30;;;14.50;99.90;;;;;;4972473;28;20051;-83
2023/05/01 08:54:00;;;;;;;15.40;8.70;;;15.50;99.90;;;;;;4973080;28;20132;-83
2023/05/01 08:56:28;;;;;;;13.38;6.00;;;14.90;99.90;;;;;;4972585;28;20066;-84
2023/05/01 08:58:55;;;;;;;13.55;6.28;;;14.80;99.90;;;;;;4972108;28;20066;-83
2023/05/01 09:01:22;;;;;;;10.77;5.25;;;15.00;99.90;;;;;;4973140;28;20066;-83
2023/05/01 09:03:49;;;;;;;11.35;5.53;;;15.10;99.90;;;;;;4973163;28;20102;-83
2023/05/01 09:06:15;;;;;;;26.98;18.17;;;15.90;99.90;;;;;;4972114;28;20054;-84
2023/05/01 09:08:41;;;;;;;41.03;32.55;;;15.50;99.90;;;;;;4973085;28;20126;-83
2023/05/01 09:11:07;;;;;;;10.98;5.68;;;15.30;99.90;;;;;;4973481;28;20235;-83
2023/05/01 09:13:32;;;;;;;10.95;5.38;;;15.40;99.90;;;;;;4972420;28;20046;-83
2023/05/01 09:15:59;;;;;;;11.68;5.63;;;15.50;99.90;;;;;;4972902;28;20117;-83
2023/05/01 09:18:25;;;;;;;13.32;6.05;;;16.70;99.90;;;;;;4971486;28;20078;-84
2023/05/01 09:20:51;;;;;;;14.63;6.38;;;15.80;99.90;;;;;;4974000;28;20073;-85
2023/05/01 09:23:20;;;;;;;16.17;10.32;;;15.90;99.90;;;;;;5015085;23;20085;-83
2023/05/01 09:25:46;;;;;;;12.60;6.15;;;16.10;99.90;;;;;;4976067;28;20082;-82
2023/05/01 09:28:12;;;;;;;13.37;5.80;;;16.30;99.90;;;;;;4998159;28;20046;-83
2023/05/01 09:34:16;;;;;;;11.68;5.25;;;15.90;99.90;;;;;;4951926;28;20054;-87
2023/05/01 09:37:00;;;;;;;11.95;5.28;;;16.20;99.90;;;;;;4977674;28;20461;-85
2023/05/01 09:39:26;;;;;;;11.25;5.10;;;17.40;99.90;;;;;;4992312;28;20125;-84
2023/05/01 09:42:09;;;;;;;11.30;4.90;;;16.40;99.90;;;;;;4971753;28;20089;-86
2023/05/01 09:44:44;;;;;;;11.55;5.20;;;16.60;99.90;;;;;;4957113;28;20051;-85
2023/05/01 09:47:10;;;;;;;12.27;7.45;;;17.40;99.90;;;;;;4992128;28;20129;-85
2023/05/01 09:49:44;;;;;;;12.48;4.68;;;17.90;99.90;;;;;;4975876;28;20047;-84
2023/05/01 09:52:10;;;;;;;10.95;4.50;;;16.90;99.90;;;;;;4993197;28;20487;-86
2023/05/01 09:54:36;;;;;;;10.00;4.30;;;17.00;99.90;;;;;;4975190;28;20051;-84
2023/05/01 09:57:02;;;;;;;10.48;4.45;;;17.00;99.90;;;;;;4992917;28;20093;-84
2023/05/01 09:59:30;;;;;;;10.00;4.30;;;17.20;99.90;;;;;;4992693;28;20101;-85
2023/05/01 10:01:59;;;;;;;13.73;5.25;;;18.10;99.90;;;;;;4992135;28;20554;-86
2023/05/01 10:04:46;;;;;;;10.80;5.45;;;17.40;99.50;;;;;;4992139;28;20525;-87
2023/05/01 10:07:28;;;;;;;9.27;4.07;;;17.20;97.70;;;;;;4990166;28;20038;-87
2023/05/01 10:10:31;;;;;;;12.32;4.00;;;17.90;98.50;;;;;;4972199;28;20418;-86
2023/05/01 10:13:19;;;;;;;9.32;4.20;;;17.70;98.70;;;;;;4974819;28;20058;-85
2023/05/01 10:16:06;;;;;;;10.77;4.07;;;18.00;99.90;;;;;;4972293;28;20046;-86
2023/05/01 10:18:34;;;;;;;11.48;4.45;;;18.30;99.60;;;;;;5016066;23;20050;-81
2023/05/01 10:21:18;;;;;;;10.43;3.75;;;18.50;99.40;;;;;;4962581;28;20499;-85
2023/05/01 10:23:59;;;;;;;9.57;3.85;;;19.30;96.40;;;;;;4955590;28;20062;-84
2023/05/01 10:26:43;;;;;;;9.85;3.60;;;18.40;98.30;;;;;;4972163;28;20125;-86
2023/05/01 10:29:30;;;;;;;10.07;4.03;;;18.50;95.10;;;;;;4978229;28;20141;-86
2023/05/01 10:35:16;;;;;;;10.63;3.25;;;18.20;94.50;;;;;;5133847;23;20124;-85
2023/05/01 10:38:08;;;;;;;9.65;3.35;;;18.10;96.70;;;;;;5017158;28;20049;-84
2023/05/01 10:40:43;;;;;;;11.77;4.10;;;18.60;97.70;;;;;;5024042;28;20049;-84
2023/05/01 10:43:28;;;;;;;8.45;3.03;;;19.00;97.70;;;;;;5054597;28;20485;-85
2023/05/01 10:46:15;;;;;;;9.73;3.20;;;19.50;93.00;;;;;;5037653;28;20504;-86
2023/05/01 10:48:43;;;;;;;9.27;3.08;;;19.00;96.30;;;;;;5037749;28;20143;-88
2023/05/01 10:51:35;;;;;;;9.13;3.00;;;19.30;95.70;;;;;;5036192;28;20568;-84
2023/05/01 10:54:13;;;;;;;7.88;3.20;;;19.50;95.20;;;;;;5037283;28;20086;-82
2023/05/01 10:56:52;;;;;;;9.82;3.00;;;19.60;94.70;;;;;;5007542;23;20140;-84
2023/05/01 11:00:05;;;;;;;9.90;2.92;;;19.20;93.10;;;;;;4997208;28;20049;-84
2023/05/01 11:02:52;;;;;;;9.70;2.97;;;19.10;93.10;;;;;;4917253;29;20059;-85
2023/05/01 11:59:46;;;;;;;10.55;3.50;;;20.50;92.30;;;;;;4976207;28;20070;-83
2023/05/01 12:03:15;;;;;;;11.05;3.83;;;21.00;92.50;;;;;;4956993;28;20487;-84
2023/05/01 12:06:46;;;;;;;10.35;3.65;;;21.10;91.70;;;;;;4944102;28;20042;-83
2023/05/01 12:09:38;;;;;;;10.38;3.90;;;21.10;93.00;;;;;;4957030;28;20046;-85
2023/05/01 12:12:04;;;;;;;10.50;3.90;;;21.20;92.50;;;;;;4957425;28;20565;-85
2023/05/01 12:14:46;;;;;;;11.77;4.03;;;21.80;93.30;;;;;;4973439;28;20039;-86
2023/05/01 12:17:23;;;;;;;10.30;3.90;;;21.50;92.00;;;;;;4958055;28;20046;-86
2023/05/01 12:20:08;;;;;;;10.50;3.40;;;21.60;92.10;;;;;;4958361;28;20487;-86
2023/05/01 12:22:34;;;;;;;9.98;3.40;;;21.60;92.00;;;;;;4957004;28;20069;-85
2023/05/01 12:25:28;;;;;;;10.30;3.47;;;21.50;93.00;;;;;;4958924;28;20035;-85
2023/05/01 12:28:18;;;;;;;10.32;3.30;;;20.90;91.70;;;;;;4958321;28;20039;-85
2023/05/01 12:31:02;;;;;;;8.60;2.90;;;20.60;92.00;;;;;;4975119;28;20047;-85
2023/05/01 12:33:53;;;;;;;8.82;2.88;;;20.70;92.90;;;;;;4978512;28;20093;-85
2023/05/01 12:36:40;;;;;;;7.38;2.40;;;20.30;92.40;;;;;;4947119;28;20085;-86
2023/05/01 12:39:08;;;;;;;6.40;2.28;;;20.30;92.40;;;;;;4998354;23;20142;-85
2023/05/01 12:41:42;;;;;;;9.50;2.85;;;20.30;91.80;;;;;;4974142;28;20546;-85
2023/05/01 12:44:25;;;;;;;8.35;2.70;;;20.50;92.30;;;;;;4974124;28;20105;-85
2023/05/01 12:47:01;;;;;;;7.03;2.60;;;20.20;92.40;;;;;;4973485;28;20599;-85
2023/05/01 12:49:28;;;;;;;7.85;3.00;;;20.40;92.50;;;;;;4972145;28;20051;-85
2023/05/01 12:51:55;;;;;;;8.32;2.60;;;20.50;92.70;;;;;;4975012;28;20408;-86
2023/05/01 12:54:29;;;;;;;7.80;2.50;;;20.50;92.20;;;;;;4973687;28;20062;-86
2023/05/01 12:57:24;;;;;;;6.65;2.40;;;20.50;92.10;;;;;;4973688;28;20046;-86
2023/05/01 13:00:00;;;;;;;8.88;2.50;;;20.70;91.80;;;;;;4960531;28;20407;-86
2023/05/01 13:02:31;;;;;;;8.02;2.40;;;20.70;91.10;;;;;;4973794;28;20152;-86
2023/05/01 13:05:10;;;;;;;7.15;2.50;;;20.60;91.60;;;;;;4972547;28;20078;-86
2023/05/01 13:07:46;;;;;;;6.00;2.20;;;20.50;91.40;;;;;;4973771;28;20054;-86
2023/05/01 13:10:30;;;;;;;14.70;3.00;;;20.60;91.70;;;;;;4980681;23;20110;-85
2023/05/01 13:13:41;;;;;;;9.00;2.75;;;20.50;92.00;;;;;;4957517;28;20174;-86
2023/05/01 13:19:27;;;;;;;7.50;2.33;;;20.30;91.80;;;;;;4973326;28;20510;-86
2023/05/01 13:22:10;;;;;;;9.57;2.60;;;20.00;91.80;;;;;;4974459;28;20054;-86
2023/05/01 13:24:55;;;;;;;7.45;2.28;;;20.50;91.90;;;;;;4974033;28;20070;-86
2023/05/01 13:27:46;;;;;;;7.38;2.17;;;21.00;92.40;;;;;;4955916;28;20139;-87
2023/05/01 13:30:33;;;;;;;7.68;2.55;;;20.30;91.60;;;;;;4954718;29;20078;-86
2023/05/01 13:33:14;;;;;;;9.18;2.70;;;20.60;91.90;;;;;;4952390;28;20577;-86
2023/05/01 13:39:26;;;;;;;8.80;2.65;;;21.00;91.80;;;;;;5167483;23;20057;-86
2023/05/01 13:46:37;;;;;;;6.80;2.40;;;21.80;91.70;;;;;;5017354;23;20064;-85
2023/05/01 13:49:28;;;;;;;8.52;2.70;;;22.30;90.70;;;;;;4955545;28;20054;-86
2023/05/01 13:52:16;;;;;;;9.02;2.58;;;21.60;91.30;;;;;;4962672;28;20553;-86
2023/05/01 13:54:42;;;;;;;7.45;2.42;;;21.50;90.50;;;;;;4976628;28;20529;-86
2023/05/01 13:57:30;;;;;;;7.18;2.63;;;22.10;90.80;;;;;;4975420;28;20402;-87
2023/05/01 14:00:18;;;;;;;7.68;2.20;;;20.70;90.40;;;;;;4976693;28;20042;-86
2023/05/01 14:03:02;;;;;;;7.20;2.35;;;20.50;90.90;;;;;;4988162;28;20038;-86
2023/05/01 14:05:52;;;;;;;;;;;20.30;91.30;;;;;;4980203;28;20051;-85
2023/05/01 14:08:40;;;;;;;8.00;2.30;;;20.80;91.60;;;;;;4978631;28;19926;-86
2023/05/01 14:11:07;;;;;;;7.95;2.60;;;20.50;91.30;;;;;;4979842;28;20050;-87
2023/05/01 14:13:49;;;;;;;7.00;2.30;;;20.90;91.50;;;;;;4978744;28;20069;-86
2023/05/01 14:16:33;;;;;;;6.90;2.20;;;20.30;91.30;;;;;;4996891;28;20050;-86
2023/05/01 14:18:59;;;;;;;7.53;2.20;;;20.10;91.50;;;;;;4996961;28;20042;-86
2023/05/01 14:21:46;;;;;;;6.50;2.30;;;19.70;91.40;;;;;;4978434;28;20038;-86
2023/05/01 14:24:32;;;;;;;6.15;2.00;;;19.80;91.60;;;;;;4996660;28;20050;-87
2023/05/01 14:28:01;;;;;;;6.80;1.80;;;19.60;91.50;;;;;;4996148;28;20050;-86
2023/05/01 14:30:47;;;;;;;6.78;1.98;;;19.60;91.30;;;;;;4979022;28;20050;-86